METAR Data
IDs: Format: Raw Decoded Include TAF

Data at: 0823 UTC 23 Sep 2018

KFYG 230735Z AUTO 00000KT 10SM CLR 12/12 A3009 RMK AO2
KFYG 230715Z AUTO 00000KT 4SM BR FEW060 12/12 A3010 RMK AO2
KFYG 230655Z AUTO 00000KT 10SM FEW060 12/12 A3010 RMK AO2
KFYG 230635Z AUTO 00000KT 2SM BR SCT060 12/12 A3010 RMK AO2
KFYG 230615Z AUTO 00000KT 10SM CLR 12/12 A3010 RMK AO2
KFYG 230555Z AUTO 00000KT 10SM FEW060 12/12 A3010 RMK AO2
KFYG 230535Z AUTO 00000KT 10SM CLR 12/12 A3010 RMK AO2
KFYG 230515Z AUTO 00000KT 10SM CLR 12/12 A3011 RMK AO2
KFYG 230455Z AUTO 00000KT 10SM CLR 12/12 A3011 RMK AO2
KFYG 230435Z AUTO 00000KT 10SM FEW016 13/13 A3012 RMK AO2
KFYG 230415Z AUTO 00000KT 10SM FEW016 13/13 A3013 RMK AO2
KFYG 230355Z AUTO 00000KT 10SM CLR 13/13 A3012 RMK AO2
KFYG 230335Z AUTO 00000KT 10SM CLR 14/14 A3013 RMK AO2
KFYG 230315Z AUTO 00000KT 10SM CLR 14/14 A3013 RMK AO2
KFYG 230255Z AUTO 00000KT 10SM FEW060 14/14 A3013 RMK AO2
KFYG 230235Z AUTO 00000KT 10SM CLR 14/14 A3013 RMK AO2
KFYG 230215Z AUTO 00000KT 10SM CLR 15/14 A3013 RMK AO2
KFYG 230155Z AUTO 00000KT 10SM CLR 17/14 A3013 RMK AO2
KFYG 230135Z AUTO 09003KT 10SM CLR 15/14 A3012 RMK AO2
KFYG 230115Z AUTO 10003KT 10SM CLR 18/13 A3013 RMK AO2
KFYG 230055Z AUTO 09004KT 10SM CLR 17/13 A3013 RMK AO2
KFYG 230035Z AUTO 09004KT 10SM CLR 18/13 A3013 RMK AO2
KFYG 230015Z AUTO 10003KT 10SM CLR 17/13 A3012 RMK AO2
KFYG 222355Z AUTO 00000KT 10SM CLR 18/13 A3012 RMK AO2
KFYG 222335Z AUTO 00000KT 10SM CLR 19/13 A3012 RMK AO2
KFYG 222315Z AUTO 00000KT 10SM CLR 20/13 A3013 RMK AO2
KFYG 222255Z AUTO 00000KT 10SM CLR 21/13 A3012 RMK AO2
KFYG 222235Z AUTO 09004KT 10SM CLR 22/13 A3012 RMK AO2
KFYG 222135Z AUTO 08003KT 10SM CLR 22/13 A3013 RMK AO2
KFYG 222115Z AUTO 09004KT 10SM CLR 22/13 A3013 RMK AO2
KFYG 222055Z AUTO 05004KT 10SM CLR 22/12 A3013 RMK AO2
KFYG 222035Z AUTO 07004KT 10SM CLR 22/13 A3013 RMK AO2
KFYG 222015Z AUTO 00000KT 10SM CLR 22/13 A3014 RMK AO2
KFYG 221955Z AUTO 10003KT 10SM CLR 22/12 A3015 RMK AO2
KFYG 221935Z AUTO 07007KT 10SM FEW035 21/12 A3016 RMK AO2
KFYG 221915Z AUTO 02003KT 10SM BKN035 20/12 A3016 RMK AO2
KFYG 221855Z AUTO 14004KT 10SM BKN035 21/12 A3017 RMK AO2
KFYG 221835Z AUTO 02004KT 10SM BKN033 21/12 A3018 RMK AO2
KFYG 221815Z AUTO 13003KT 10SM SCT031 20/12 A3019 RMK AO2
KFYG 221755Z AUTO 14003KT 10SM SCT031 20/12 A3020 RMK AO2
KFYG 221735Z AUTO 03004KT 10SM CLR 19/12 A3020 RMK AO2
KFYG 221715Z AUTO 05005KT 10SM CLR 19/12 A3021 RMK AO2
KFYG 221655Z AUTO 13006KT 10SM CLR 19/12 A3022 RMK AO2
KFYG 221635Z AUTO 08004KT 10SM CLR 18/11 A3023 RMK AO2
KFYG 221615Z AUTO 08005KT 10SM CLR 18/11 A3023 RMK AO2
KFYG 221555Z AUTO 07005KT 10SM CLR 17/11 A3024 RMK AO2
KFYG 221535Z AUTO 04005KT 10SM CLR 17/11 A3024 RMK AO2
KFYG 221515Z AUTO 07006KT 10SM CLR 17/10 A3024 RMK AO2
KFYG 221455Z AUTO 07004KT 10SM CLR 16/10 A3025 RMK AO2
KFYG 221435Z AUTO 06004KT 10SM CLR 16/10 A3024 RMK AO2
KFYG 221415Z AUTO 07003KT 10SM CLR 15/10 A3024 RMK AO2
KFYG 221355Z AUTO 00000KT 10SM CLR 15/10 A3024 RMK AO2
KFYG 221335Z AUTO 03003KT 10SM CLR 15/10 A3024 RMK AO2
KFYG 221315Z AUTO 00000KT 10SM CLR 15/10 A3023 RMK AO2
KFYG 221255Z AUTO 05003KT 10SM CLR 15/10 A3024 RMK AO2
KFYG 221235Z AUTO 00000KT 10SM CLR 14/10 A3024 RMK AO2
KFYG 221215Z AUTO 00000KT 10SM CLR 14/10 A3023 RMK AO2
KFYG 221155Z AUTO 33003KT 10SM CLR 15/10 A3023 RMK AO2
KFYG 221135Z AUTO 00000KT 10SM CLR 15/10 A3023 RMK AO2
KFYG 221115Z AUTO 00000KT 10SM CLR 15/10 A3023 RMK AO2
KFYG 221055Z AUTO 00000KT 10SM CLR 15/10 A3023 RMK AO2
KFYG 221035Z AUTO 05003KT 10SM CLR 15/10 A3023 RMK AO2
KFYG 221015Z AUTO 00000KT 10SM FEW075 SCT100 15/10 A3023 RMK AO2
KFYG 220955Z AUTO 00000KT 10SM SCT075 BKN110 15/10 A3022 RMK AO2
KFYG 220935Z AUTO 00000KT 10SM FEW075 15/10 A3023 RMK AO2
KFYG 220915Z AUTO 00000KT 10SM CLR 15/10 A3023 RMK AO2
KFYG 220835Z AUTO 02004KT 10SM CLR 16/10 A3022 RMK AO2
KFYG 220815Z AUTO 01005KT 10SM CLR 16/10 A3022 RMK AO2
KFYG 220755Z AUTO 36003KT 10SM CLR 17/10 A3022 RMK AO2
KFYG 220735Z AUTO 34004KT 10SM CLR 17/10 A3023 RMK AO2
KFYG 220715Z AUTO 33004KT 10SM CLR 17/11 A3024 RMK AO2
KFYG 220635Z AUTO 00000KT 10SM FEW110 17/11 A3023 RMK AO2
KFYG 220615Z AUTO 02003KT 10SM FEW110 18/11 A3023 RMK AO2
KFYG 220555Z AUTO 06003KT 10SM CLR 18/11 A3022 RMK AO2
KFYG 220535Z AUTO 35005KT 10SM FEW110 18/11 A3022 RMK AO2
KFYG 220515Z AUTO 35003KT 10SM FEW100 18/11 A3022 RMK AO2
KFYG 220455Z AUTO 34007KT 10SM CLR 18/12 A3022 RMK AO2
KFYG 220435Z AUTO 00000KT 10SM CLR 18/12 A3022 RMK AO2
KFYG 220415Z AUTO 34004KT 10SM CLR 18/12 A3022 RMK AO2
KFYG 220355Z AUTO 34005KT 10SM CLR 19/12 A3021 RMK AO2
KFYG 220335Z AUTO 35005KT 10SM FEW080 19/12 A3022 RMK AO2
KFYG 220315Z AUTO 35005KT 10SM FEW065 SCT080 19/12 A3021 RMK AO2
KFYG 220255Z AUTO 36005KT 10SM SCT065 BKN080 BKN100 19/12 A3021 RMK AO2
KFYG 220235Z AUTO 34005KT 10SM FEW055 SCT080 BKN090 19/12 A3021 RMK AO2
KFYG 220215Z AUTO 34003KT 10SM FEW055 SCT070 BKN100 19/12 A3022 RMK AO2
KFYG 220155Z AUTO 33004KT 10SM CLR 19/12 A3021 RMK AO2
KFYG 220135Z AUTO 34005KT 10SM CLR 19/13 A3020 RMK AO2
KFYG 220115Z AUTO 34006KT 10SM CLR 19/13 A3019 RMK AO2
KFYG 220055Z AUTO 34006KT 10SM CLR 19/13 A3018 RMK AO2
KFYG 220035Z AUTO 32005KT 10SM CLR 19/13 A3018 RMK AO2
KFYG 220015Z AUTO 33005KT 10SM CLR 20/12 A3016 RMK AO2
KFYG 212355Z AUTO 33007KT 10SM CLR 20/12 A3014 RMK AO2
KFYG 212335Z AUTO 34010G14KT 10SM CLR 20/12 A3012 RMK AO2
KFYG 212315Z AUTO 35009KT 10SM CLR 21/12 A3012 RMK AO2
KFYG 212255Z AUTO 33008KT 10SM CLR 22/12 A3011 RMK AO2
KFYG 212235Z AUTO 33007KT 10SM CLR 22/12 A3011 RMK AO2
KFYG 212215Z AUTO 35011G17KT 10SM CLR 23/11 A3010 RMK AO2
KFYG 212155Z AUTO 36010G15KT 10SM CLR 24/12 A3009 RMK AO2
KFYG 212135Z AUTO 33007KT 10SM CLR 25/13 A3009 RMK AO2
KFYG 212115Z AUTO 32009KT 10SM CLR 25/13 A3008 RMK AO2
KFYG 212055Z AUTO 34009G15KT 10SM CLR 27/12 A3008 RMK AO2
KFYG 212035Z AUTO 33009KT 10SM CLR 26/13 A3007 RMK AO2